Time;durP1;ratioP1;P1;durP2;ratioP2;P2;SDS_P1;SDS_P2;PMS_P1;PMS_P2;Temp;Humidity;BMP_temperature;BMP_pressure;BME280_temperature;BME280_humidity;BME280_pressure;Samples;Min_cycle;Max_cycle;Signal;HPM_P1;HPM_P2
2022/04/15 00:00:27;;;;;;;3.85;2.92;;;;;;;5.07;88.78;91331.00;5003823;28;20404;-64
2022/04/15 00:02:53;;;;;;;9.02;3.10;;;;;;;5.05;88.69;91327.06;5004316;28;20487;-65
2022/04/15 00:05:37;;;;;;;4.28;3.40;;;;;;;5.04;89.63;91320.97;5002895;28;20026;-65
2022/04/15 00:08:04;;;;;;;5.13;3.35;;;;;;;4.96;89.82;91321.50;5003157;28;20076;-65
2022/04/15 00:10:30;;;;;;;5.72;2.80;;;;;;;5.06;88.61;91326.00;5003116;28;20040;-65
2022/04/15 00:12:57;;;;;;;4.18;3.08;;;;;;;4.99;89.17;91315.72;5004447;28;20049;-65
2022/04/15 00:15:23;;;;;;;5.47;2.90;;;;;;;4.92;90.25;91320.47;5003265;28;20026;-65
2022/04/15 00:17:50;;;;;;;4.43;3.00;;;;;;;4.78;91.73;91316.78;5003049;28;20029;-65
2022/04/15 00:20:16;;;;;;;6.00;3.05;;;;;;;4.68;93.51;91320.19;5004401;28;20022;-65
2022/04/15 00:22:41;;;;;;;3.22;2.72;;;;;;;4.73;91.94;91322.03;5002506;28;20499;-65
2022/04/15 00:25:10;;;;;;;3.63;2.83;;;;;;;4.73;92.01;91319.41;5003211;28;20045;-65
2022/04/15 00:27:36;;;;;;;4.78;2.75;;;;;;;4.80;90.99;91312.81;5004213;28;20022;-65
2022/04/15 00:30:04;;;;;;;7.18;3.08;;;;;;;4.93;89.10;91321.25;5002579;28;20068;-65
2022/04/15 00:32:30;;;;;;;5.20;3.20;;;;;;;4.97;87.91;91317.81;5002499;28;20487;-64
2022/04/15 00:34:55;;;;;;;3.30;2.63;;;;;;;4.96;88.99;91304.91;5003915;28;20021;-65
2022/04/15 00:37:21;;;;;;;6.18;3.20;;;;;;;4.89;89.68;91305.19;5002254;28;20055;-65
2022/04/15 00:39:46;;;;;;;6.38;4.10;;;;;;;4.93;89.09;91306.25;5003299;28;20022;-65
2022/04/15 00:42:12;;;;;;;10.23;5.10;;;;;;;4.87;89.47;91306.47;5003517;28;20036;-65
2022/04/15 00:44:38;;;;;;;10.13;4.90;;;;;;;4.80;89.89;91298.84;5001765;28;20070;-65
2022/04/15 00:47:17;;;;;;;10.55;4.90;;;;;;;4.71;90.68;91298.59;5003228;28;20499;-65
2022/04/15 00:49:43;;;;;;;7.88;4.13;;;;;;;4.71;91.08;91298.59;5002434;28;20101;-65
2022/04/15 00:52:12;;;;;;;6.30;3.70;;;;;;;4.63;91.96;91306.25;5002525;28;20157;-64
2022/04/15 00:54:39;;;;;;;7.38;3.92;;;;;;;4.69;91.83;91305.97;5003836;28;20026;-65
2022/04/15 00:57:09;;;;;;;5.82;3.38;;;;;;;4.70;90.96;91304.13;5002562;28;20022;-64
2022/04/15 00:59:38;;;;;;;5.55;3.35;;;;;;;4.87;89.91;91312.53;5001562;28;20578;-65
2022/04/15 01:02:04;;;;;;;3.60;3.00;;;;;;;4.87;89.17;91309.91;4985397;28;20037;-65
2022/04/15 01:04:31;;;;;;;7.45;3.38;;;;;;;4.86;89.27;91303.06;5012302;28;20400;-64
2022/04/15 01:07:00;;;;;;;6.78;3.22;;;;;;;4.86;88.96;91305.69;5013797;28;20030;-64
2022/04/15 01:09:31;;;;;;;5.50;4.30;;;;;;;4.80;89.89;91302.28;5013757;28;20030;-65
2022/04/15 01:11:58;;;;;;;5.22;3.55;;;;;;;4.70;90.83;91307.53;5013681;28;20026;-64
2022/04/15 01:14:25;;;;;;;6.85;3.47;;;;;;;4.64;91.68;91305.19;5013630;28;20117;-65
2022/04/15 01:16:51;;;;;;;3.95;2.95;;;;;;;4.58;92.76;91306.25;5013666;28;20495;-65
2022/04/15 01:19:16;;;;;;;7.95;3.33;;;;;;;4.58;93.39;91314.16;4995891;28;20126;-65
2022/04/15 01:21:44;;;;;;;8.15;3.10;;;;;;;4.58;93.89;91308.88;5013359;28;20466;-65
2022/04/15 01:24:09;;;;;;;4.05;2.97;;;;;;;4.60;93.38;91320.72;5013417;28;20034;-64
2022/04/15 01:26:35;;;;;;;5.03;2.97;;;;;;;4.53;93.78;91312.28;5013503;28;20496;-65
2022/04/15 01:29:02;;;;;;;7.10;3.22;;;;;;;4.49;94.09;91309.38;5013282;28;20088;-64
2022/04/15 01:31:31;;;;;;;3.25;2.70;;;;;;;4.50;93.99;91318.88;5013182;28;20053;-64
2022/04/15 01:33:58;;;;;;;5.35;2.97;;;;;;;4.53;93.69;91308.84;5013398;28;20034;-65
2022/04/15 01:36:23;;;;;;;4.13;3.10;;;;;;;4.45;94.30;91310.19;5013464;28;20109;-65
2022/04/15 01:38:49;;;;;;;4.95;3.10;;;;;;;4.38;94.93;91307.78;5013323;28;20547;-65
2022/04/15 01:41:14;;;;;;;6.43;3.78;;;;;;;4.29;97.03;91304.09;5012956;28;20036;-64
2022/04/15 01:43:40;;;;;;;4.80;3.67;;;;;;;4.05;100.00;91306.41;5010596;28;20130;-64
2022/04/15 01:46:05;;;;;;;6.68;3.40;;;;;;;3.88;100.00;91303.19;5010598;28;20112;-64
2022/04/15 01:48:31;;;;;;;7.07;3.95;;;;;;;3.88;100.00;91296.09;4998425;28;20107;-64
2022/04/15 01:50:56;;;;;;;5.63;3.75;;;;;;;3.84;100.00;91299.50;4996327;28;20453;-64
2022/04/15 01:53:22;;;;;;;4.85;3.63;;;;;;;3.77;100.00;91291.03;4993567;28;20031;-64
2022/04/15 01:55:48;;;;;;;6.95;4.00;;;;;;;3.70;100.00;91288.66;4994201;28;20038;-64
2022/04/15 01:58:17;;;;;;;6.38;4.10;;;;;;;3.70;100.00;91293.13;4993650;28;20049;-64
2022/04/15 02:00:43;;;;;;;4.15;3.17;;;;;;;3.61;100.00;91285.72;4993234;28;20073;-64
2022/04/15 02:03:08;;;;;;;6.40;3.92;;;;;;;3.61;100.00;91291.00;4993631;28;20039;-64
2022/04/15 02:05:34;;;;;;;5.78;3.55;;;;;;;3.72;100.00;91291.03;4993188;28;20035;-64
2022/04/15 02:07:59;;;;;;;4.65;3.08;;;;;;;3.77;100.00;91283.16;4993292;28;20077;-64
2022/04/15 02:10:25;;;;;;;7.18;3.50;;;;;;;3.67;100.00;91276.03;4993262;28;20408;-64
2022/04/15 02:12:50;;;;;;;6.05;3.72;;;;;;;3.55;100.00;91270.19;4993081;28;20038;-64
2022/04/15 02:15:16;;;;;;;7.95;4.88;;;;;;;3.49;100.00;91277.28;4993009;28;20038;-64
2022/04/15 02:17:41;;;;;;;4.00;3.13;;;;;;;3.48;100.00;91264.41;4992141;28;20500;-65
2022/04/15 02:20:10;;;;;;;5.47;3.58;;;;;;;3.40;100.00;91278.03;4992689;28;20048;-65
2022/04/15 02:22:36;;;;;;;7.38;3.65;;;;;;;3.30;100.00;91276.91;4992946;28;20459;-64
2022/04/15 02:25:01;;;;;;;6.63;3.72;;;;;;;3.08;100.00;91278.91;4992875;28;20038;-64
2022/04/15 02:27:27;;;;;;;6.43;3.70;;;;;;;3.05;100.00;91284.69;4992770;28;20153;-64
2022/04/15 02:29:53;;;;;;;5.93;3.70;;;;;;;2.98;100.00;91274.38;4993149;28;20069;-64
2022/04/15 02:32:18;;;;;;;6.82;3.85;;;;;;;2.90;100.00;91266.19;4992678;28;20038;-64
2022/04/15 02:34:43;;;;;;;10.48;4.57;;;;;;;2.76;100.00;91259.78;4992854;28;20061;-64
2022/04/15 02:37:09;;;;;;;6.15;4.00;;;;;;;2.73;100.00;91262.94;4992975;28;20038;-64
2022/04/15 02:39:34;;;;;;;9.32;4.30;;;;;;;2.73;100.00;91255.84;4993147;28;20050;-65
2022/04/15 02:42:00;;;;;;;5.82;3.95;;;;;;;2.74;100.00;91256.63;4992721;28;20038;-65
2022/04/15 02:44:28;;;;;;;7.05;4.00;;;;;;;2.85;100.00;91250.41;4992423;28;20125;-65
2022/04/15 02:46:54;;;;;;;5.32;4.47;;;;;;;2.85;100.00;91255.66;4992783;28;20480;-66
2022/04/15 02:49:19;;;;;;;7.65;5.90;;;;;;;2.82;100.00;91250.91;4993922;28;20038;-66
2022/04/15 02:51:45;;;;;;;6.32;4.35;;;;;;;2.86;100.00;91257.25;4993610;28;20483;-66
2022/04/15 02:54:10;;;;;;;5.55;4.38;;;;;;;2.89;100.00;91251.47;4993496;28;20038;-65
2022/04/15 02:56:36;;;;;;;9.98;4.97;;;;;;;2.82;100.00;91248.25;4976801;28;20038;-65
2022/04/15 02:59:01;;;;;;;11.25;6.10;;;;;;;2.67;100.00;91256.84;4992916;28;20046;-65
2022/04/15 03:01:27;;;;;;;10.43;5.43;;;;;;;2.62;100.00;91262.06;4996504;28;20073;-65
2022/04/15 03:03:52;;;;;;;7.72;4.65;;;;;;;2.46;100.00;91261.16;4996931;28;20034;-65
2022/04/15 03:06:18;;;;;;;8.75;4.63;;;;;;;2.43;100.00;91264.28;4996584;28;20045;-65
2022/04/15 03:08:43;;;;;;;9.45;5.03;;;;;;;2.42;100.00;91259.28;4996553;28;20076;-65
2022/04/15 03:11:08;;;;;;;14.02;5.18;;;;;;;2.51;100.00;91265.66;4996569;28;20030;-65
2022/04/15 03:13:35;;;;;;;7.90;4.70;;;;;;;2.51;100.00;91266.44;4996334;28;20061;-64
2022/04/15 03:16:00;;;;;;;9.57;5.60;;;;;;;2.40;100.00;91260.34;4996434;28;20536;-65
2022/04/15 03:18:26;;;;;;;12.60;6.47;;;;;;;2.38;100.00;91266.88;4996372;28;20034;-65
2022/04/15 03:20:51;;;;;;;13.88;6.38;;;;;;;2.24;100.00;91265.72;4998793;28;20519;-66
2022/04/15 03:23:19;;;;;;;27.55;14.75;;;;;;;2.33;100.00;91266.81;4996597;28;20038;-65
2022/04/15 03:25:46;;;;;;;24.17;12.35;;;;;;;2.44;100.00;91267.72;5009880;28;20053;-65
2022/04/15 03:28:13;;;;;;;9.85;5.65;;;;;;;2.49;100.00;91273.00;5007377;28;20058;-65
2022/04/15 03:30:38;;;;;;;14.32;6.30;;;;;;;2.43;100.00;91277.41;4999585;28;20081;-65
2022/04/15 03:33:04;;;;;;;13.93;6.78;;;;;;;2.44;100.00;91279.00;5015473;28;20026;-65
2022/04/15 03:35:29;;;;;;;13.95;6.43;;;;;;;2.32;100.00;91273.13;5015518;28;20108;-65
2022/04/15 03:37:55;;;;;;;33.15;7.50;;;;;;;2.25;100.00;91280.44;5015482;28;20065;-65
2022/04/15 03:40:21;;;;;;;16.15;7.07;;;;;;;2.25;100.00;91283.06;5004009;28;20455;-66
2022/04/15 03:42:48;;;;;;;11.02;4.88;;;;;;;2.31;100.00;91284.66;5034661;28;20640;-66
2022/04/15 03:45:18;;;;;;;10.25;5.25;;;;;;;2.49;100.00;91284.28;5034233;28;20037;-65
2022/04/15 03:47:44;;;;;;;6.93;4.70;;;;;;;2.42;100.00;91283.72;5034104;28;20040;-65
2022/04/15 03:50:13;;;;;;;9.63;5.32;;;;;;;2.16;100.00;91289.78;5034089;28;20029;-64
2022/04/15 03:52:42;;;;;;;9.93;6.03;;;;;;;2.15;100.00;91293.44;5033553;28;20115;-65
2022/04/15 03:55:18;;;;;;;7.90;6.15;;;;;;;2.14;100.00;91292.66;5034131;28;20041;-65
2022/04/15 03:57:44;;;;;;;10.50;5.10;;;;;;;2.17;100.00;91280.88;5034039;28;20048;-65
2022/04/15 04:00:12;;;;;;;8.55;5.82;;;;;;;2.23;100.00;91275.44;5034060;28;20033;-65
2022/04/15 04:02:38;;;;;;;11.52;7.30;;;;;;;2.40;100.00;91280.56;5033884;28;20044;-66
2022/04/15 04:05:04;;;;;;;13.35;6.93;;;;;;;2.59;100.00;91283.59;5033798;28;20045;-65
2022/04/15 04:07:30;;;;;;;8.90;4.57;;;;;;;2.85;100.00;91287.19;5033860;28;20091;-65
2022/04/15 04:09:56;;;;;;;8.02;3.90;;;;;;;3.10;100.00;91286.53;5033185;28;20172;-65
2022/04/15 04:12:22;;;;;;;7.90;5.38;;;;;;;3.28;100.00;91296.63;5033612;28;20600;-65
2022/04/15 04:14:47;;;;;;;9.23;6.07;;;;;;;3.29;100.00;91293.75;5032933;28;20060;-65
2022/04/15 04:17:13;;;;;;;9.48;6.20;;;;;;;3.31;100.00;91290.84;5033657;28;20427;-65
2022/04/15 04:19:38;;;;;;;12.30;5.68;;;;;;;3.41;100.00;91288.28;5033688;28;20033;-65
2022/04/15 04:22:04;;;;;;;26.08;8.50;;;;;;;3.44;100.00;91286.97;5033411;28;20530;-65
2022/04/15 04:24:30;;;;;;;24.13;9.15;;;;;;;3.34;100.00;91292.19;5033519;28;20476;-65
2022/04/15 04:26:55;;;;;;;21.90;11.18;;;;;;;3.54;100.00;91289.66;5033540;28;20045;-65
2022/04/15 04:29:21;;;;;;;38.22;13.95;;;;;;;3.56;100.00;91288.34;5033616;28;20026;-65
2022/04/15 04:31:46;;;;;;;27.58;10.40;;;;;;;3.51;100.00;91290.97;5033585;28;20045;-65
2022/04/15 04:34:12;;;;;;;28.52;10.68;;;;;;;3.59;100.00;91292.31;5033415;28;20038;-65
2022/04/15 04:36:37;;;;;;;29.92;11.30;;;;;;;3.46;100.00;91290.94;5033372;28;20564;-65
2022/04/15 04:39:06;;;;;;;27.38;11.70;;;;;;;3.90;100.00;91304.50;5005922;28;20057;-64
2022/04/15 04:41:32;;;;;;;7.47;5.32;;;;;;;4.35;100.00;91300.41;4993876;28;20116;-64
2022/04/15 04:43:58;;;;;;;9.40;5.05;;;;;;;4.46;100.00;91301.22;4993556;28;20512;-65
2022/04/15 04:46:23;;;;;;;17.13;7.57;;;;;;;4.61;100.00;91303.06;4993710;28;20081;-65
2022/04/15 04:48:48;;;;;;;21.35;6.57;;;;;;;5.28;100.00;91296.69;4993741;28;20089;-65
2022/04/15 04:51:14;;;;;;;17.13;5.40;;;;;;;6.79;92.73;91299.72;4993599;28;20057;-65
2022/04/15 04:53:40;;;;;;;21.35;5.50;;;;;;;8.14;81.14;91301.53;4993528;28;20034;-65
2022/04/15 04:56:05;;;;;;;25.50;7.70;;;;;;;9.27;72.11;91295.13;4993722;28;20082;-65
2022/04/15 04:58:30;;;;;;;27.25;12.18;;;;;;;10.56;65.23;91299.63;4976199;28;20424;-65
2022/04/15 05:00:56;;;;;;;29.10;10.75;;;;;;;10.96;61.41;91290.75;4993361;28;20475;-65
2022/04/15 05:03:21;;;;;;;9.82;5.68;;;;;;;12.37;55.14;91303.47;4993299;28;20389;-65
2022/04/15 05:05:48;;;;;;;16.75;7.05;;;;;;;12.38;53.37;91304.25;4993306;28;20542;-66
2022/04/15 05:08:13;;;;;;;13.60;5.05;;;;;;;11.66;54.09;91305.31;4993094;28;20038;-65
2022/04/15 05:10:39;;;;;;;9.93;4.60;;;;;;;10.99;55.17;91298.16;4992791;28;20080;-65
2022/04/15 05:13:04;;;;;;;20.20;5.57;;;;;;;11.50;55.10;91302.25;4993183;28;20527;-65
2022/04/15 05:15:30;;;;;;;23.60;8.02;;;;;;;12.73;52.43;91305.13;4993087;28;20049;-65
2022/04/15 05:17:55;;;;;;;17.88;5.85;;;;;;;13.12;52.46;91296.22;4993121;28;20093;-65
2022/04/15 05:20:20;;;;;;;16.08;5.93;;;;;;;14.17;49.89;91303.72;5029730;28;20088;-65
2022/04/15 05:22:46;;;;;;;11.45;5.88;;;;;;;14.94;47.96;91307.94;5031425;28;20037;-65
2022/04/15 05:25:11;;;;;;;22.67;5.90;;;;;;;14.61;48.14;91291.75;5032226;28;20044;-65
2022/04/15 05:27:37;;;;;;;25.85;7.05;;;;;;;15.79;46.70;91286.16;5032386;28;20045;-65
2022/04/15 05:30:04;;;;;;;25.27;7.70;;;;;;;17.21;42.66;91297.19;5014595;28;20045;-65
2022/04/15 05:32:30;;;;;;;44.88;14.05;;;;;;;17.53;42.41;91301.59;5032232;28;20042;-64
2022/04/15 05:34:55;;;;;;;64.75;20.00;;;;;;;19.58;39.56;91303.63;5032959;28;20091;-65
2022/04/15 05:37:20;;;;;;;46.22;19.73;;;;;;;19.48;39.43;91299.50;5031951;28;20545;-67
2022/04/15 05:39:46;;;;;;;21.20;9.50;;;;;;;19.13;37.89;91297.63;5025915;28;20526;-67
2022/04/15 05:42:11;;;;;;;10.07;5.70;;;;;;;18.17;37.03;91303.34;5013034;28;20462;-65
2022/04/15 05:44:37;;;;;;;9.48;5.32;;;;;;;18.42;37.39;91308.56;5021970;28;20499;-67
2022/04/15 05:47:02;;;;;;;13.18;6.00;;;;;;;19.10;37.06;91301.03;5021877;28;20104;-67
2022/04/15 05:49:28;;;;;;;17.98;7.00;;;;;;;19.67;36.46;91302.25;5023139;28;20025;-68
2022/04/15 05:51:54;;;;;;;26.63;7.60;;;;;;;20.60;35.54;91290.50;5021651;28;20038;-67
2022/04/15 05:54:19;;;;;;;14.25;6.45;;;;;;;21.75;34.69;91302.66;5022100;28;20033;-67
2022/04/15 05:56:45;;;;;;;13.32;6.18;;;;;;;21.94;34.41;91304.47;5020532;28;20014;-66
2022/04/15 05:59:10;;;;;;;16.30;6.82;;;;;;;22.20;33.44;91295.47;5022982;28;20048;-67
2022/04/15 06:01:36;;;;;;;12.57;6.70;;;;;;;22.89;33.12;91306.66;5017456;28;20104;-66
2022/04/15 06:04:01;;;;;;;11.57;6.70;;;;;;;23.62;31.92;91282.34;5012009;28;20034;-66
2022/04/15 06:06:27;;;;;;;19.02;7.55;;;;;;;25.25;30.58;91292.16;5017643;28;20032;-67
2022/04/15 06:08:53;;;;;;;11.40;6.38;;;;;;;23.60;30.70;91287.41;5030529;28;20510;-66
2022/04/15 06:11:19;;;;;;;22.52;7.10;;;;;;;24.78;30.21;91296.78;5032186;28;20056;-66
2022/04/15 06:13:47;;;;;;;13.73;7.43;;;;;;;26.06;28.33;91288.53;5032805;28;20479;-66
2022/04/15 06:16:17;;;;;;;21.50;8.38;;;;;;;24.23;31.29;91296.22;5032751;28;20468;-66
2022/04/15 06:18:43;;;;;;;11.63;6.45;;;;;;;24.69;30.30;91275.38;5032257;28;20033;-67
2022/04/15 06:21:08;;;;;;;10.50;6.28;;;;;;;25.21;30.23;91292.16;5032033;28;20462;-66
2022/04/15 06:23:34;;;;;;;20.58;7.28;;;;;;;24.83;30.31;91295.63;5032325;28;20109;-67
2022/04/15 06:25:59;;;;;;;20.20;7.63;;;;;;;25.23;30.60;91297.19;5032316;28;20032;-66
2022/04/15 06:28:25;;;;;;;99.20;12.45;;;;;;;23.45;31.90;91285.72;5032401;28;20051;-66
2022/04/15 06:30:51;;;;;;;21.35;7.10;;;;;;;23.85;31.24;91282.88;5032065;28;20115;-66
2022/04/15 06:33:18;;;;;;;639.40;50.40;;;;;;;24.16;31.12;91294.25;5032158;28;20026;-68
2022/04/15 06:35:44;;;;;;;20.77;7.03;;;;;;;23.99;30.99;91282.16;5014877;28;20029;-65
2022/04/15 06:38:09;;;;;;;12.77;5.45;;;;;;;24.58;30.70;91284.69;5012367;28;20100;-65
2022/04/15 06:40:38;;;;;;;40.30;7.70;;;;;;;24.96;30.29;91292.13;5012410;28;20551;-67
2022/04/15 06:43:04;;;;;;;119.93;11.50;;;;;;;25.50;31.23;91278.50;5012582;28;20026;-67
2022/04/15 06:45:29;;;;;;;14.20;6.72;;;;;;;25.74;29.84;91274.22;4993965;28;20513;-67
2022/04/15 06:47:55;;;;;;;43.25;7.90;;;;;;;28.46;27.33;91282.78;5011689;28;20054;-68
2022/04/15 06:50:20;;;;;;;89.32;10.10;;;;;;;28.52;27.95;91286.59;5011400;28;20049;-68
2022/04/15 06:52:46;;;;;;;20.13;6.78;;;;;;;27.72;27.09;91282.41;5011605;28;20058;-68
2022/04/15 06:55:11;;;;;;;59.50;8.15;;;;;;;29.25;26.15;91277.00;5011817;28;20431;-67
2022/04/15 06:57:37;;;;;;;52.60;9.18;;;;;;;28.44;27.42;91282.41;5012064;28;20033;-67
2022/04/15 07:00:05;;;;;;;16.80;6.32;;;;;;;28.26;27.01;91272.47;5011366;28;20025;-68
2022/04/15 07:02:30;;;;;;;54.97;8.25;;;;;;;29.04;26.86;91275.38;5011840;28;20034;-68
2022/04/15 07:04:56;;;;;;;16.70;7.30;;;;;;;29.84;25.93;91271.72;5011634;28;20099;-68
2022/04/15 07:07:21;;;;;;;104.53;12.05;;;;;;;30.78;25.96;91279.72;5011477;28;20156;-68
2022/04/15 07:09:49;;;;;;;13.80;5.30;;;;;;;29.58;25.44;91267.84;5011455;28;20025;-68
2022/04/15 07:12:16;;;;;;;25.73;6.00;;;;;;;29.97;25.83;91274.59;5012056;28;20039;-68
2022/04/15 07:14:41;;;;;;;13.48;4.88;;;;;;;31.91;23.91;91268.03;5011990;28;20232;-67
2022/04/15 07:17:07;;;;;;;18.63;5.25;;;;;;;29.38;25.28;91276.00;5012174;28;20499;-68
2022/04/15 07:19:32;;;;;;;16.30;5.20;;;;;;;28.63;25.36;91270.81;5012410;28;20034;-67
2022/04/15 07:21:58;;;;;;;21.92;4.57;;;;;;;27.69;26.68;91277.75;5011595;28;20030;-67
2022/04/15 07:24:23;;;;;;;22.58;5.70;;;;;;;28.53;25.88;91271.72;5002468;28;20050;-68
2022/04/15 07:26:49;;;;;;;12.43;5.18;;;;;;;28.16;25.56;91267.09;4995028;28;20103;-67
2022/04/15 07:29:14;;;;;;;16.58;6.88;;;;;;;29.22;26.07;91273.91;5008115;28;20030;-67
2022/04/15 07:31:42;;;;;;;25.33;7.82;;;;;;;30.74;23.33;91271.53;5010281;28;20109;-65
2022/04/15 07:34:07;;;;;;;19.33;7.07;;;;;;;30.66;24.32;91267.41;5010875;28;20034;-67
2022/04/15 07:39:05;;;;;;;12.52;5.85;;;;;;;29.85;24.02;91270.50;5011090;28;20095;-67
2022/04/15 07:41:30;;;;;;;15.57;7.40;;;;;;;29.75;25.73;91268.72;5011020;28;20510;-67
2022/04/15 07:43:56;;;;;;;18.13;7.43;;;;;;;29.27;24.12;91266.38;4989172;28;20058;-66
2022/04/15 07:46:22;;;;;;;19.13;7.45;;;;;;;29.58;24.76;91262.38;4992357;28;20485;-67
2022/04/15 07:48:47;;;;;;;12.38;6.65;;;;;;;29.09;24.11;91264.69;4994708;28;20030;-69
2022/04/15 07:51:13;;;;;;;35.25;7.85;;;;;;;30.49;23.22;91258.31;4995048;28;20448;-65
2022/04/15 07:53:38;;;;;;;37.13;8.93;;;;;;;30.08;24.37;91261.47;4996162;28;20424;-66
2022/04/15 07:56:04;;;;;;;23.40;9.13;;;;;;;29.96;23.99;91264.81;5013541;28;20037;-66
2022/04/15 07:58:30;;;;;;;21.25;9.40;;;;;;;31.12;23.83;91255.38;5014261;28;20025;-65
2022/04/15 08:00:59;;;;;;;24.02;7.55;;;;;;;33.10;22.22;91258.00;5014606;28;20033;-66
2022/04/15 08:03:26;;;;;;;10.10;6.05;;;;;;;32.13;22.46;91252.47;5013981;28;20096;-66
2022/04/15 08:05:51;;;;;;;68.22;11.05;;;;;;;31.51;24.25;91245.44;5013698;28;20037;-67
2022/04/15 08:08:17;;;;;;;15.52;6.05;;;;;;;31.99;22.05;91255.63;5014409;28;20022;-67
2022/04/15 08:10:43;;;;;;;39.20;8.27;;;;;;;32.56;22.22;91251.31;5013544;28;20069;-68
2022/04/15 08:13:08;;;;;;;25.30;8.52;;;;;;;32.83;23.12;91250.97;5014322;28;20511;-67
2022/04/15 08:15:33;;;;;;;33.95;9.45;;;;;;;31.82;21.83;91252.13;5013152;28;20018;-66
2022/04/15 08:18:00;;;;;;;27.00;7.65;;;;;;;31.53;23.66;91256.78;5013412;28;20510;-66
2022/04/15 08:20:25;;;;;;;35.88;7.97;;;;;;;32.11;23.82;91245.88;5013544;28;20036;-67
2022/04/15 08:22:51;;;;;;;25.15;6.47;;;;;;;32.64;21.81;91249.88;5013481;28;20033;-66
2022/04/15 08:25:16;;;;;;;94.05;11.80;;;;;;;32.04;22.32;91240.56;5012891;28;20072;-67
2022/04/15 08:27:41;;;;;;;12.35;4.20;;;;;;;31.99;21.60;91236.34;5013255;28;20480;-66
2022/04/15 08:30:07;;;;;;;15.60;4.20;;;;;;;32.54;22.51;91233.69;4996698;28;20025;-66
2022/04/15 08:32:33;;;;;;;6.55;3.28;;;;;;;32.57;21.90;91233.59;5013258;28;20069;-66
2022/04/15 08:35:03;;;;;;;12.43;4.40;;;;;;;34.19;21.27;91225.28;5013269;28;20061;-68
2022/04/15 08:37:29;;;;;;;11.20;6.55;;;;;;;32.43;21.33;91229.25;5013286;28;20018;-69
2022/04/15 08:39:54;;;;;;;14.93;5.05;;;;;;;31.24;23.56;91227.25;5013455;28;20487;-68
2022/04/15 08:42:20;;;;;;;31.70;7.03;;;;;;;32.24;22.67;91216.41;5013522;28;20034;-65
2022/04/15 08:44:50;;;;;;;24.48;7.38;;;;;;;32.03;22.09;91214.22;5013453;28;20080;-67
2022/04/15 08:47:16;;;;;;;48.35;8.82;;;;;;;31.00;22.86;91220.31;5014215;28;20033;-68
2022/04/15 08:49:42;;;;;;;20.98;10.27;;;;;;;31.64;23.30;91213.28;5013804;28;20042;-66
2022/04/15 08:52:09;;;;;;;14.13;7.45;;;;;;;31.76;23.08;91220.84;5013771;28;20030;-66
2022/04/15 08:54:35;;;;;;;13.07;5.18;;;;;;;32.34;20.16;91209.84;5012823;28;20069;-66
2022/04/15 08:57:00;;;;;;;122.05;14.02;;;;;;;32.44;21.38;91214.28;5013565;28;20149;-67
2022/04/15 08:59:26;;;;;;;15.15;6.82;;;;;;;32.30;21.00;91208.41;5013661;28;20475;-66
2022/04/15 09:01:51;;;;;;;32.67;6.82;;;;;;;31.23;21.96;91209.19;5013384;28;20026;-67
2022/04/15 09:04:18;;;;;;;22.60;5.07;;;;;;;30.98;21.99;91200.75;5013544;28;20026;-69
2022/04/15 09:06:44;;;;;;;11.10;4.43;;;;;;;29.49;23.06;91199.84;5013129;28;20030;-73
2022/04/15 09:09:14;;;;;;;12.77;4.75;;;;;;;31.18;21.78;91190.47;5013629;28;20037;-68
2022/04/15 09:11:41;;;;;;;7.55;4.30;;;;;;;32.45;21.03;91193.00;5013370;28;20037;-68
2022/04/15 09:14:08;;;;;;;8.93;4.63;;;;;;;33.57;21.75;91192.69;5013696;28;20100;-70
2022/04/15 09:16:41;;;;;;;13.52;4.22;;;;;;;33.02;19.48;91194.06;5001154;28;20065;-65
2022/04/15 09:19:07;;;;;;;6.80;3.25;;;;;;;31.80;18.66;91188.50;4976069;28;20727;-65
2022/04/15 09:21:33;;;;;;;11.70;3.90;;;;;;;30.83;21.75;91186.56;4993382;28;20026;-64
2022/04/15 09:23:59;;;;;;;11.43;3.78;;;;;;;29.64;21.10;91183.13;4993546;28;20408;-64
2022/04/15 09:26:25;;;;;;;10.85;4.00;;;;;;;29.27;22.32;91173.22;4993051;28;20034;-65
2022/04/15 09:28:56;;;;;;;12.15;4.05;;;;;;;28.12;21.80;91173.34;4993656;28;20041;-65
2022/04/15 09:31:23;;;;;;;6.90;3.20;;;;;;;28.93;21.06;91166.72;5008791;28;20033;-63
2022/04/15 09:34:00;;;;;;;11.73;3.70;;;;;;;30.16;21.52;91179.81;5012243;28;20026;-63
2022/04/15 09:36:33;;;;;;;87.18;11.57;;;;;;;31.82;19.16;91164.09;5011607;28;20064;-63
2022/04/15 09:39:10;;;;;;;5.57;3.05;;;;;;;32.33;20.69;91157.97;5010659;28;20072;-63
2022/04/15 09:41:40;;;;;;;12.48;3.30;;;;;;;34.65;18.84;91157.31;5010436;28;20030;-63
2022/04/15 09:44:10;;;;;;;33.92;4.07;;;;;;;34.20;18.65;91152.25;5012979;28;20060;-63
2022/04/15 09:46:35;;;;;;;10.27;3.45;;;;;;;32.88;18.04;91156.69;5011533;28;20029;-66
2022/04/15 09:49:02;;;;;;;9.52;3.33;;;;;;;32.17;18.90;91151.28;5012224;28;20025;-66
2022/04/15 09:51:37;;;;;;;5.15;2.97;;;;;;;32.90;18.67;91151.50;5012468;28;20472;-66
2022/04/15 09:54:04;;;;;;;20.73;4.70;;;;;;;30.77;20.82;91152.59;5012698;28;20041;-66
2022/04/15 09:56:36;;;;;;;6.70;3.58;;;;;;;32.44;19.57;91141.91;5012005;28;20056;-66
2022/04/15 09:59:11;;;;;;;7.30;3.88;;;;;;;34.70;17.54;91136.59;5012560;28;20149;-67
2022/04/15 10:01:46;;;;;;;9.35;3.08;;;;;;;33.82;18.27;91131.13;5011428;28;20152;-68
2022/04/15 10:04:13;;;;;;;7.55;3.72;;;;;;;33.89;18.74;91119.06;5012072;28;20381;-67
2022/04/15 10:06:40;;;;;;;19.73;3.95;;;;;;;34.17;19.67;91122.78;5011947;28;20060;-67
2022/04/15 10:09:10;;;;;;;33.85;4.70;;;;;;;32.23;20.67;91135.03;5011831;28;20116;-67
2022/04/15 10:11:35;;;;;;;7.97;3.15;;;;;;;29.72;23.89;91121.47;5011777;28;20040;-66
2022/04/15 10:14:03;;;;;;;28.23;4.68;;;;;;;31.35;21.45;91110.72;5011678;28;20022;-67
2022/04/15 10:16:30;;;;;;;15.73;3.75;;;;;;;32.21;22.73;91118.16;5008387;28;20025;-66
2022/04/15 10:18:59;;;;;;;6.50;3.00;;;;;;;33.87;19.38;91116.00;5011842;28;20034;-67
2022/04/15 10:21:25;;;;;;;5.50;2.72;;;;;;;33.82;19.80;91113.78;5011813;28;20037;-67
2022/04/15 10:23:51;;;;;;;28.60;4.80;;;;;;;32.23;21.17;91114.97;5012279;28;20034;-67
2022/04/15 10:26:20;;;;;;;6.88;3.30;;;;;;;31.46;21.84;91113.97;5010857;28;20022;-68
2022/04/15 10:28:47;;;;;;;8.40;2.95;;;;;;;33.23;19.87;91110.66;5011771;28;20042;-67
2022/04/15 10:31:16;;;;;;;4.43;3.00;;;;;;;32.32;22.24;91113.13;5010207;28;20037;-67
2022/04/15 10:33:43;;;;;;;4.88;2.70;;;;;;;32.76;19.98;91107.84;5011862;28;20030;-66
2022/04/15 10:36:16;;;;;;;5.00;2.90;;;;;;;33.65;18.82;91107.69;5011643;28;20017;-67
2022/04/15 10:39:03;;;;;;;5.95;2.60;;;;;;;32.86;19.25;91098.50;5012103;28;20040;-67
2022/04/15 10:41:50;;;;;;;24.92;3.90;;;;;;;34.31;19.06;91102.16;5011467;28;20022;-65
2022/04/15 10:44:36;;;;;;;6.63;3.20;;;;;;;34.68;18.76;91097.59;5011730;28;20046;-66
2022/04/15 10:47:24;;;;;;;20.27;4.72;;;;;;;32.87;21.03;91096.50;5011246;28;20041;-66
2022/04/15 10:49:57;;;;;;;20.50;3.85;;;;;;;34.11;18.65;91094.22;5011928;28;20061;-66
2022/04/15 10:52:25;;;;;;;3.65;2.83;;;;;;;34.42;18.67;91088.75;5012016;28;20057;-66
2022/04/15 10:54:58;;;;;;;14.35;3.38;;;;;;;34.20;18.72;91095.03;5011267;28;20515;-67
2022/04/15 10:57:35;;;;;;;20.83;4.32;;;;;;;34.13;19.32;91086.25;5009523;28;20117;-66
2022/04/15 11:02:56;;;;;;;6.32;2.83;;;;;;;33.85;18.49;91083.31;5011362;28;20100;-67
2022/04/15 11:05:51;;;;;;;6.20;2.60;;;;;;;34.99;18.57;91087.25;5010491;28;20046;-67
2022/04/15 11:08:18;;;;;;;5.68;3.00;;;;;;;34.49;18.13;91083.69;5011406;28;20038;-67
2022/04/15 11:10:57;;;;;;;40.70;5.38;;;;;;;33.35;20.32;91084.28;5010831;28;20038;-66
2022/04/15 11:13:23;;;;;;;13.10;4.18;;;;;;;32.30;19.88;91077.00;5014605;28;20196;-66
2022/04/15 11:16:13;;;;;;;4.35;3.00;;;;;;;31.38;20.85;91074.09;5009834;28;20073;-66
2022/04/15 11:18:46;;;;;;;10.43;2.90;;;;;;;31.74;19.89;91074.72;5000415;28;20049;-67
2022/04/15 11:21:15;;;;;;;5.57;3.47;;;;;;;32.00;20.43;91081.03;5012554;28;20196;-67
2022/04/15 11:23:46;;;;;;;6.25;3.40;;;;;;;31.51;19.76;91072.94;5012843;28;20045;-67
2022/04/15 11:26:12;;;;;;;5.32;3.08;;;;;;;32.68;18.94;91073.47;5014863;28;20100;-66
2022/04/15 11:28:39;;;;;;;6.65;3.40;;;;;;;33.93;18.29;91070.81;5015188;28;20100;-66
2022/04/15 11:31:18;;;;;;;17.05;4.40;;;;;;;34.02;19.36;91070.06;5015027;28;20200;-66
2022/04/15 11:33:44;;;;;;;6.25;3.08;;;;;;;31.80;20.73;91063.94;5015387;28;20076;-66